sensor_id;sensor_type;location;lat;lon;timestamp;pressure;altitude;pressure_sealevel;temperature;humidity
64668;BME280;51077;42.716;23.344;2023-06-05T00:00:44;95826.25;;;17.65;66.80
64668;BME280;51077;42.716;23.344;2023-06-05T00:03:09;95831.06;;;17.65;67.06
64668;BME280;51077;42.716;23.344;2023-06-05T00:05:35;95826.78;;;17.64;66.88
64668;BME280;51077;42.716;23.344;2023-06-05T00:08:01;95827.31;;;17.62;67.06
64668;BME280;51077;42.716;23.344;2023-06-05T00:10:26;95825.09;;;17.61;67.16
64668;BME280;51077;42.716;23.344;2023-06-05T00:12:52;95827.88;;;17.61;67.08
64668;BME280;51077;42.716;23.344;2023-06-05T00:15:18;95828.44;;;17.59;67.13
64668;BME280;51077;42.716;23.344;2023-06-05T00:17:43;95832.28;;;17.56;67.34
64668;BME280;51077;42.716;23.344;2023-06-05T00:20:09;95828.03;;;17.55;67.06
64668;BME280;51077;42.716;23.344;2023-06-05T00:22:35;95837.63;;;17.54;67.20
64668;BME280;51077;42.716;23.344;2023-06-05T00:25:01;95830.59;;;17.53;67.22
64668;BME280;51077;42.716;23.344;2023-06-05T00:27:30;95831.16;;;17.51;67.29
64668;BME280;51077;42.716;23.344;2023-06-05T00:29:55;95828.38;;;17.51;67.23
64668;BME280;51077;42.716;23.344;2023-06-05T00:32:21;95828.16;;;17.49;67.21
64668;BME280;51077;42.716;23.344;2023-06-05T00:34:46;95838.53;;;17.49;67.28
64668;BME280;51077;42.716;23.344;2023-06-05T00:37:15;95834.81;;;17.46;67.37
64668;BME280;51077;42.716;23.344;2023-06-05T00:39:40;95835.56;;;17.47;67.48
64668;BME280;51077;42.716;23.344;2023-06-05T00:42:07;95831.09;;;17.44;67.51
64668;BME280;51077;42.716;23.344;2023-06-05T00:44:33;95831.09;;;17.44;67.30
64668;BME280;51077;42.716;23.344;2023-06-05T00:46:59;95822.75;;;17.44;67.65
64668;BME280;51077;42.716;23.344;2023-06-05T00:49:26;95817.22;;;17.44;67.29
64668;BME280;51077;42.716;23.344;2023-06-05T00:51:52;95823.31;;;17.42;67.30
64668;BME280;51077;42.716;23.344;2023-06-05T00:54:17;95808.72;;;17.42;67.40
64668;BME280;51077;42.716;23.344;2023-06-05T00:56:44;95815.00;;;17.42;67.40
64668;BME280;51077;42.716;23.344;2023-06-05T00:59:10;95803.69;;;17.40;67.32
64668;BME280;51077;42.716;23.344;2023-06-05T01:01:37;95808.72;;;17.42;67.25
64668;BME280;51077;42.716;23.344;2023-06-05T01:04:03;95810.72;;;17.41;67.45
64668;BME280;51077;42.716;23.344;2023-06-05T01:06:30;95805.94;;;17.42;67.23
64668;BME280;51077;42.716;23.344;2023-06-05T01:08:59;95803.50;;;17.38;67.40
64668;BME280;51077;42.716;23.344;2023-06-05T01:14:31;95808.09;;;17.36;67.24
64668;BME280;51077;42.716;23.344;2023-06-05T01:17:01;95810.13;;;17.35;67.17
64668;BME280;51077;42.716;23.344;2023-06-05T01:19:28;95805.66;;;17.32;67.29
64668;BME280;51077;42.716;23.344;2023-06-05T01:21:57;95802.88;;;17.32;67.08
64668;BME280;51077;42.716;23.344;2023-06-05T01:24:23;95800.47;;;17.28;67.38
64668;BME280;51077;42.716;23.344;2023-06-05T01:30:04;95796.00;;;17.25;67.48
64668;BME280;51077;42.716;23.344;2023-06-05T01:33:12;95785.44;;;17.24;67.43
64668;BME280;51077;42.716;23.344;2023-06-05T01:35:38;95784.09;;;17.17;67.54
64668;BME280;51077;42.716;23.344;2023-06-05T01:38:05;95788.56;;;17.20;67.36
64668;BME280;51077;42.716;23.344;2023-06-05T01:40:32;95786.31;;;17.19;67.55
64668;BME280;51077;42.716;23.344;2023-06-05T01:42:59;95782.06;;;17.18;67.27
64668;BME280;51077;42.716;23.344;2023-06-05T01:45:26;95781.13;;;17.15;67.37
64668;BME280;51077;42.716;23.344;2023-06-05T01:47:52;95785.00;;;17.12;67.39
64668;BME280;51077;42.716;23.344;2023-06-05T01:50:18;95783.50;;;17.11;67.71
64668;BME280;51077;42.716;23.344;2023-06-05T01:52:44;95783.31;;;17.09;67.70
64668;BME280;51077;42.716;23.344;2023-06-05T01:55:20;95779.06;;;17.08;67.55
64668;BME280;51077;42.716;23.344;2023-06-05T01:57:49;95789.94;;;17.06;67.69
64668;BME280;51077;42.716;23.344;2023-06-05T02:00:15;95784.19;;;17.04;67.67
64668;BME280;51077;42.716;23.344;2023-06-05T02:02:50;95791.78;;;17.03;67.57
64668;BME280;51077;42.716;23.344;2023-06-05T02:05:16;95788.78;;;17.01;67.53
64668;BME280;51077;42.716;23.344;2023-06-05T02:07:46;95787.31;;;17.00;67.61
64668;BME280;51077;42.716;23.344;2023-06-05T02:10:14;95787.63;;;16.97;67.86
64668;BME280;51077;42.716;23.344;2023-06-05T02:12:40;95782.63;;;16.95;67.68
64668;BME280;51077;42.716;23.344;2023-06-05T02:15:08;95790.97;;;16.95;67.68
64668;BME280;51077;42.716;23.344;2023-06-05T02:17:34;95792.03;;;16.92;67.55
64668;BME280;51077;42.716;23.344;2023-06-05T02:20:00;95782.97;;;16.92;67.83
64668;BME280;51077;42.716;23.344;2023-06-05T02:22:25;95785.56;;;16.90;67.74
64668;BME280;51077;42.716;23.344;2023-06-05T02:24:51;95788.84;;;16.88;67.79
64668;BME280;51077;42.716;23.344;2023-06-05T02:27:19;95788.66;;;16.86;67.77
64668;BME280;51077;42.716;23.344;2023-06-05T02:29:45;95782.91;;;16.84;67.82
64668;BME280;51077;42.716;23.344;2023-06-05T02:32:10;95786.97;;;16.83;67.72
64668;BME280;51077;42.716;23.344;2023-06-05T02:34:36;95787.53;;;16.81;67.81
64668;BME280;51077;42.716;23.344;2023-06-05T02:37:03;95789.00;;;16.82;67.74
64668;BME280;51077;42.716;23.344;2023-06-05T02:39:28;95790.81;;;16.80;67.73
64668;BME280;51077;42.716;23.344;2023-06-05T02:41:56;95782.31;;;16.78;67.72
64668;BME280;51077;42.716;23.344;2023-06-05T02:44:22;95785.09;;;16.78;67.63
64668;BME280;51077;42.716;23.344;2023-06-05T02:46:47;95779.31;;;16.76;67.64
64668;BME280;51077;42.716;23.344;2023-06-05T02:49:13;95780.59;;;16.75;67.65
64668;BME280;51077;42.716;23.344;2023-06-05T02:51:38;95779.13;;;16.74;67.81
64668;BME280;51077;42.716;23.344;2023-06-05T02:54:03;95782.44;;;16.72;67.86
64668;BME280;51077;42.716;23.344;2023-06-05T02:56:29;95786.47;;;16.71;67.90
64668;BME280;51077;42.716;23.344;2023-06-05T02:58:54;95788.50;;;16.71;67.59
64668;BME280;51077;42.716;23.344;2023-06-05T03:01:22;95791.81;;;16.69;67.70
64668;BME280;51077;42.716;23.344;2023-06-05T03:03:47;95796.63;;;16.69;67.79
64668;BME280;51077;42.716;23.344;2023-06-05T03:06:14;95795.88;;;16.68;67.79
64668;BME280;51077;42.716;23.344;2023-06-05T03:08:43;95795.13;;;16.68;67.60
64668;BME280;51077;42.716;23.344;2023-06-05T03:11:08;95792.34;;;16.68;67.44
64668;BME280;51077;42.716;23.344;2023-06-05T03:13:33;95803.44;;;16.68;67.70
64668;BME280;51077;42.716;23.344;2023-06-05T03:15:59;95793.63;;;16.67;67.71
64668;BME280;51077;42.716;23.344;2023-06-05T03:18:28;95803.44;;;16.68;67.60
64668;BME280;51077;42.716;23.344;2023-06-05T03:20:54;95803.44;;;16.68;67.62
64668;BME280;51077;42.716;23.344;2023-06-05T03:23:26;95796.63;;;16.69;67.50
64668;BME280;51077;42.716;23.344;2023-06-05T03:25:53;95796.63;;;16.69;67.64
64668;BME280;51077;42.716;23.344;2023-06-05T03:28:20;95802.16;;;16.69;67.55
64668;BME280;51077;42.716;23.344;2023-06-05T03:30:46;95807.88;;;16.71;67.58
64668;BME280;51077;42.716;23.344;2023-06-05T03:33:12;95811.41;;;16.71;67.63
64668;BME280;51077;42.716;23.344;2023-06-05T03:35:39;95812.16;;;16.72;67.53
64668;BME280;51077;42.716;23.344;2023-06-05T03:38:05;95806.09;;;16.73;67.55
64668;BME280;51077;42.716;23.344;2023-06-05T03:40:31;95814.09;;;16.77;67.67
64668;BME280;51077;42.716;23.344;2023-06-05T03:42:56;95811.50;;;16.79;67.46
64668;BME280;51077;42.716;23.344;2023-06-05T03:45:22;95814.50;;;16.81;67.41
64668;BME280;51077;42.716;23.344;2023-06-05T03:47:47;95822.47;;;16.84;67.34
64668;BME280;51077;42.716;23.344;2023-06-05T03:50:14;95822.13;;;16.88;67.09
64668;BME280;51077;42.716;23.344;2023-06-05T03:52:40;95812.00;;;16.91;67.29
64668;BME280;51077;42.716;23.344;2023-06-05T03:55:06;95805.38;;;16.94;67.13
64668;BME280;51077;42.716;23.344;2023-06-05T03:57:33;95808.56;;;16.98;67.14
64668;BME280;51077;42.716;23.344;2023-06-05T03:59:59;95808.00;;;16.99;67.31
64668;BME280;51077;42.716;23.344;2023-06-05T04:02:25;95812.66;;;17.04;67.05
64668;BME280;51077;42.716;23.344;2023-06-05T04:04:50;95813.81;;;17.09;67.25
64668;BME280;51077;42.716;23.344;2023-06-05T04:07:16;95812.72;;;17.12;66.88
64668;BME280;51077;42.716;23.344;2023-06-05T04:09:42;95812.91;;;17.14;66.99
64668;BME280;51077;42.716;23.344;2023-06-05T04:12:08;95823.91;;;17.20;66.99
64668;BME280;51077;42.716;23.344;2023-06-05T04:14:35;95824.50;;;17.26;66.91
64668;BME280;51077;42.716;23.344;2023-06-05T04:17:02;95824.88;;;17.30;66.94
64668;BME280;51077;42.716;23.344;2023-06-05T04:19:28;95820.47;;;17.34;66.64
64668;BME280;51077;42.716;23.344;2023-06-05T04:21:54;95827.91;;;17.40;66.59
64668;BME280;51077;42.716;23.344;2023-06-05T04:24:19;95826.28;;;17.44;66.56
64668;BME280;51077;42.716;23.344;2023-06-05T04:26:44;95827.97;;;17.47;66.48
64668;BME280;51077;42.716;23.344;2023-06-05T04:29:10;95827.63;;;17.51;66.51
64668;BME280;51077;42.716;23.344;2023-06-05T04:31:44;95832.06;;;17.54;66.51
64668;BME280;51077;42.716;23.344;2023-06-05T04:34:10;95833.03;;;17.56;66.25
64668;BME280;51077;42.716;23.344;2023-06-05T04:36:36;95829.69;;;17.58;66.44
64668;BME280;51077;42.716;23.344;2023-06-05T04:39:03;95820.50;;;17.63;66.54
64668;BME280;51077;42.716;23.344;2023-06-05T04:41:30;95822.00;;;17.64;66.45
64668;BME280;51077;42.716;23.344;2023-06-05T04:43:58;95820.88;;;17.67;66.23
64668;BME280;51077;42.716;23.344;2023-06-05T04:46:25;95819.06;;;17.70;66.40
64668;BME280;51077;42.716;23.344;2023-06-05T04:48:51;95815.94;;;17.73;66.35
64668;BME280;51077;42.716;23.344;2023-06-05T04:51:21;95816.34;;;17.77;66.31
64668;BME280;51077;42.716;23.344;2023-06-05T04:53:47;95821.56;;;17.81;66.11
64668;BME280;51077;42.716;23.344;2023-06-05T04:56:16;95822.69;;;17.86;65.91
64668;BME280;51077;42.716;23.344;2023-06-05T04:58:42;95823.81;;;17.90;66.23
64668;BME280;51077;42.716;23.344;2023-06-05T05:01:07;95825.69;;;17.95;65.92
64668;BME280;51077;42.716;23.344;2023-06-05T05:03:33;95825.53;;;18.01;65.92
64668;BME280;51077;42.716;23.344;2023-06-05T05:05:58;95827.41;;;18.06;65.90
64668;BME280;51077;42.716;23.344;2023-06-05T05:08:24;95823.19;;;18.13;65.69
64668;BME280;51077;42.716;23.344;2023-06-05T05:10:50;95825.44;;;18.22;65.35
64668;BME280;51077;42.716;23.344;2023-06-05T05:13:15;95822.50;;;18.27;65.36
64668;BME280;51077;42.716;23.344;2023-06-05T05:15:40;95823.47;;;18.38;65.21
64668;BME280;51077;42.716;23.344;2023-06-05T05:18:06;95821.44;;;18.46;65.06
64668;BME280;51077;42.716;23.344;2023-06-05T05:20:31;95825.19;;;18.56;64.85
64668;BME280;51077;42.716;23.344;2023-06-05T05:22:59;95823.34;;;18.66;64.54
64668;BME280;51077;42.716;23.344;2023-06-05T05:25:25;95826.94;;;18.74;64.47
64668;BME280;51077;42.716;23.344;2023-06-05T05:27:51;95820.09;;;18.83;64.33
64668;BME280;51077;42.716;23.344;2023-06-05T05:30:17;95816.00;;;18.92;64.09
64668;BME280;51077;42.716;23.344;2023-06-05T05:32:42;95819.00;;;19.01;63.87
64668;BME280;51077;42.716;23.344;2023-06-05T05:35:08;95822.91;;;19.14;63.69
64668;BME280;51077;42.716;23.344;2023-06-05T05:37:33;95821.97;;;19.26;63.74
64668;BME280;51077;42.716;23.344;2023-06-05T05:39:59;95822.34;;;19.38;63.58
64668;BME280;51077;42.716;23.344;2023-06-05T05:42:24;95819.38;;;19.51;63.38
64668;BME280;51077;42.716;23.344;2023-06-05T05:44:49;95817.72;;;19.64;63.48
64668;BME280;51077;42.716;23.344;2023-06-05T05:47:15;95809.16;;;19.77;63.01
64668;BME280;51077;42.716;23.344;2023-06-05T05:49:40;95818.56;;;19.89;62.76
64668;BME280;51077;42.716;23.344;2023-06-05T05:52:06;95812.59;;;20.00;62.59
64668;BME280;51077;42.716;23.344;2023-06-05T05:54:31;95803.84;;;20.12;62.44
64668;BME280;51077;42.716;23.344;2023-06-05T05:56:56;95802.09;;;20.24;62.44
64668;BME280;51077;42.716;23.344;2023-06-05T05:59:22;95798.69;;;20.33;61.92
64668;BME280;51077;42.716;23.344;2023-06-05T06:01:48;95798.47;;;20.46;61.84
64668;BME280;51077;42.716;23.344;2023-06-05T06:04:16;95798.41;;;20.62;61.36
64668;BME280;51077;42.716;23.344;2023-06-05T06:06:42;95793.88;;;20.74;61.19
64668;BME280;51077;42.716;23.344;2023-06-05T06:09:08;95797.72;;;20.86;60.94
64668;BME280;51077;42.716;23.344;2023-06-05T06:11:35;95803.91;;;21.02;60.65
64668;BME280;51077;42.716;23.344;2023-06-05T06:14:01;95800.66;;;21.13;60.43
64668;BME280;51077;42.716;23.344;2023-06-05T06:16:26;95801.50;;;21.23;59.92
64668;BME280;51077;42.716;23.344;2023-06-05T06:18:52;95800.34;;;21.34;59.37
64668;BME280;51077;42.716;23.344;2023-06-05T06:21:18;95811.03;;;21.45;59.07
64668;BME280;51077;42.716;23.344;2023-06-05T06:23:43;95811.22;;;21.47;58.28
64668;BME280;51077;42.716;23.344;2023-06-05T06:26:10;95803.91;;;21.52;58.04
64668;BME280;51077;42.716;23.344;2023-06-05T06:28:37;95803.66;;;21.57;57.40
64668;BME280;51077;42.716;23.344;2023-06-05T06:31:02;95792.09;;;21.61;57.14
64668;BME280;51077;42.716;23.344;2023-06-05T06:33:28;95792.56;;;21.67;56.86
64668;BME280;51077;42.716;23.344;2023-06-05T06:35:54;95801.28;;;21.71;56.41
64668;BME280;51077;42.716;23.344;2023-06-05T06:38:20;95799.56;;;21.76;55.94
64668;BME280;51077;42.716;23.344;2023-06-05T06:40:46;95792.97;;;21.81;56.18
64668;BME280;51077;42.716;23.344;2023-06-05T06:43:12;95802.63;;;21.88;55.89
64668;BME280;51077;42.716;23.344;2023-06-05T06:45:37;95792.69;;;21.94;55.96
64668;BME280;51077;42.716;23.344;2023-06-05T06:48:02;95796.53;;;21.99;55.43
64668;BME280;51077;42.716;23.344;2023-06-05T06:50:28;95789.38;;;22.05;55.21
64668;BME280;51077;42.716;23.344;2023-06-05T06:52:53;95789.09;;;22.11;55.06
64668;BME280;51077;42.716;23.344;2023-06-05T06:55:18;95786.84;;;22.17;55.00
64668;BME280;51077;42.716;23.344;2023-06-05T06:57:44;95791.59;;;22.24;54.62
64668;BME280;51077;42.716;23.344;2023-06-05T07:00:10;95790.16;;;22.33;54.57
64668;BME280;51077;42.716;23.344;2023-06-05T07:02:36;95793.63;;;22.41;54.21
64668;BME280;51077;42.716;23.344;2023-06-05T07:05:05;95798.38;;;22.48;53.87
64668;BME280;51077;42.716;23.344;2023-06-05T07:07:31;95789.91;;;22.56;53.70
64668;BME280;51077;42.716;23.344;2023-06-05T07:09:56;95785.50;;;22.63;53.35
64668;BME280;51077;42.716;23.344;2023-06-05T07:12:23;95778.91;;;22.68;52.94
64668;BME280;51077;42.716;23.344;2023-06-05T07:14:48;95780.53;;;22.71;53.02
64668;BME280;51077;42.716;23.344;2023-06-05T07:17:14;95793.50;;;22.76;52.88
64668;BME280;51077;42.716;23.344;2023-06-05T07:19:39;95779.84;;;22.80;52.83
64668;BME280;51077;42.716;23.344;2023-06-05T07:22:06;95785.59;;;22.82;52.67
64668;BME280;51077;42.716;23.344;2023-06-05T07:24:32;95787.41;;;22.87;52.48
64668;BME280;51077;42.716;23.344;2023-06-05T07:27:01;95775.22;;;22.92;52.46
64668;BME280;51077;42.716;23.344;2023-06-05T07:29:27;95777.16;;;22.99;52.31
64668;BME280;51077;42.716;23.344;2023-06-05T07:31:55;95791.19;;;23.09;52.05
64668;BME280;51077;42.716;23.344;2023-06-05T07:34:21;95784.88;;;23.18;51.73
64668;BME280;51077;42.716;23.344;2023-06-05T07:36:48;95786.38;;;23.29;51.31
64668;BME280;51077;42.716;23.344;2023-06-05T07:39:15;95798.38;;;23.39;50.89
64668;BME280;51077;42.716;23.344;2023-06-05T07:41:42;95797.66;;;23.48;50.43
64668;BME280;51077;42.716;23.344;2023-06-05T07:44:09;95798.69;;;23.63;50.28
64668;BME280;51077;42.716;23.344;2023-06-05T07:46:35;95804.06;;;23.78;49.83
64668;BME280;51077;42.716;23.344;2023-06-05T07:49:00;95803.94;;;23.95;49.16
64668;BME280;51077;42.716;23.344;2023-06-05T07:51:26;95806.72;;;24.15;48.55
64668;BME280;51077;42.716;23.344;2023-06-05T07:53:51;95818.97;;;24.29;48.15
64668;BME280;51077;42.716;23.344;2023-06-05T07:56:16;95813.97;;;24.47;47.94
64668;BME280;51077;42.716;23.344;2023-06-05T07:58:42;95804.03;;;24.65;47.81
64668;BME280;51077;42.716;23.344;2023-06-05T08:01:09;95794.69;;;24.82;47.17
64668;BME280;51077;42.716;23.344;2023-06-05T08:03:35;95796.69;;;25.01;46.82
64668;BME280;51077;42.716;23.344;2023-06-05T08:06:00;95793.09;;;25.20;46.49
64668;BME280;51077;42.716;23.344;2023-06-05T08:08:27;95804.09;;;25.37;45.89
64668;BME280;51077;42.716;23.344;2023-06-05T08:10:52;95803.09;;;25.54;45.59
64668;BME280;51077;42.716;23.344;2023-06-05T08:13:18;95797.22;;;25.71;45.66
64668;BME280;51077;42.716;23.344;2023-06-05T08:15:43;95808.78;;;25.97;44.98
64668;BME280;51077;42.716;23.344;2023-06-05T08:18:09;95803.59;;;26.15;44.27
64668;BME280;51077;42.716;23.344;2023-06-05T08:20:34;95802.38;;;26.39;44.18
64668;BME280;51077;42.716;23.344;2023-06-05T08:23:00;95805.16;;;26.61;43.78
64668;BME280;51077;42.716;23.344;2023-06-05T08:25:26;95804.31;;;26.81;43.35
64668;BME280;51077;42.716;23.344;2023-06-05T08:27:52;95800.56;;;27.00;42.67
64668;BME280;51077;42.716;23.344;2023-06-05T08:30:18;95803.53;;;27.14;42.41
64668;BME280;51077;42.716;23.344;2023-06-05T08:32:43;95808.31;;;27.23;42.04
64668;BME280;51077;42.716;23.344;2023-06-05T08:35:09;95821.78;;;27.37;41.55
64668;BME280;51077;42.716;23.344;2023-06-05T08:37:36;95814.31;;;27.53;41.47
64668;BME280;51077;42.716;23.344;2023-06-05T08:40:05;95809.16;;;27.61;41.09
64668;BME280;51077;42.716;23.344;2023-06-05T08:42:36;95812.94;;;27.66;41.15
64668;BME280;51077;42.716;23.344;2023-06-05T08:45:07;95811.84;;;27.71;41.33
64668;BME280;51077;42.716;23.344;2023-06-05T08:47:35;95817.50;;;27.83;41.03
64668;BME280;51077;42.716;23.344;2023-06-05T08:50:04;95816.38;;;27.88;40.91
64668;BME280;51077;42.716;23.344;2023-06-05T08:52:32;95810.97;;;27.92;40.64
64668;BME280;51077;42.716;23.344;2023-06-05T08:54:58;95809.09;;;28.08;40.70
64668;BME280;51077;42.716;23.344;2023-06-05T08:57:24;95809.16;;;28.22;40.33
64668;BME280;51077;42.716;23.344;2023-06-05T08:59:49;95802.97;;;28.37;39.85
64668;BME280;51077;42.716;23.344;2023-06-05T09:02:15;95811.81;;;28.43;39.86
64668;BME280;51077;42.716;23.344;2023-06-05T09:04:41;95807.25;;;28.64;39.30
64668;BME280;51077;42.716;23.344;2023-06-05T09:07:06;95800.59;;;28.71;39.01
64668;BME280;51077;42.716;23.344;2023-06-05T09:09:33;95808.78;;;28.78;39.18
64668;BME280;51077;42.716;23.344;2023-06-05T09:12:08;95801.59;;;28.89;39.17
64668;BME280;51077;42.716;23.344;2023-06-05T09:14:34;95811.91;;;28.96;38.38
64668;BME280;51077;42.716;23.344;2023-06-05T09:17:02;95796.84;;;29.05;38.37
64668;BME280;51077;42.716;23.344;2023-06-05T09:19:38;95802.38;;;29.03;37.99
64668;BME280;51077;42.716;23.344;2023-06-05T09:22:05;95798.72;;;29.01;38.22
64668;BME280;51077;42.716;23.344;2023-06-05T09:24:31;95792.88;;;29.11;38.02
64668;BME280;51077;42.716;23.344;2023-06-05T09:32:01;95797.78;;;28.96;38.01
64668;BME280;51077;42.716;23.344;2023-06-05T09:34:32;95796.34;;;28.84;37.51
64668;BME280;51077;42.716;23.344;2023-06-05T09:36:59;95803.88;;;28.53;37.87
64668;BME280;51077;42.716;23.344;2023-06-05T09:39:26;95805.47;;;28.19;38.54
64668;BME280;51077;42.716;23.344;2023-06-05T09:41:53;95796.31;;;28.07;38.82
64668;BME280;51077;42.716;23.344;2023-06-05T09:44:19;95799.56;;;27.90;39.16
64668;BME280;51077;42.716;23.344;2023-06-05T09:47:01;95799.06;;;27.81;39.16
64668;BME280;51077;42.716;23.344;2023-06-05T09:52:10;95794.56;;;27.53;39.49
64668;BME280;51077;42.716;23.344;2023-06-05T09:54:37;95787.81;;;27.46;39.18
64668;BME280;51077;42.716;23.344;2023-06-05T09:57:05;95793.13;;;27.40;38.94
64668;BME280;51077;42.716;23.344;2023-06-05T09:59:35;95785.63;;;27.33;38.84
64668;BME280;51077;42.716;23.344;2023-06-05T10:02:07;95773.25;;;27.38;38.64
64668;BME280;51077;42.716;23.344;2023-06-05T10:04:45;95787.72;;;27.44;38.65
64668;BME280;51077;42.716;23.344;2023-06-05T10:07:12;95772.75;;;27.42;38.80
64668;BME280;51077;42.716;23.344;2023-06-05T10:09:38;95770.94;;;27.35;38.40
64668;BME280;51077;42.716;23.344;2023-06-05T10:12:06;95772.78;;;27.18;38.38
64668;BME280;51077;42.716;23.344;2023-06-05T10:14:36;95771.03;;;27.01;38.80
64668;BME280;51077;42.716;23.344;2023-06-05T10:17:02;95768.94;;;26.90;39.26
64668;BME280;51077;42.716;23.344;2023-06-05T10:19:28;95784.84;;;26.86;39.26
64668;BME280;51077;42.716;23.344;2023-06-05T10:21:53;95780.31;;;26.80;39.60
64668;BME280;51077;42.716;23.344;2023-06-05T10:24:28;95770.41;;;26.79;39.80
64668;BME280;51077;42.716;23.344;2023-06-05T10:35:27;95778.38;;;26.95;39.40
64668;BME280;51077;42.716;23.344;2023-06-05T10:40:35;95764.97;;;27.17;39.59
64668;BME280;51077;42.716;23.344;2023-06-05T10:44:04;95759.91;;;27.39;39.21
64668;BME280;51077;42.716;23.344;2023-06-05T10:49:10;95760.84;;;27.67;38.96
64668;BME280;51077;42.716;23.344;2023-06-05T10:51:49;95755.19;;;27.67;39.28
64668;BME280;51077;42.716;23.344;2023-06-05T10:56:58;95750.53;;;28.34;37.83
64668;BME280;51077;42.716;23.344;2023-06-05T10:59:35;95739.16;;;28.97;36.92
64668;BME280;51077;42.716;23.344;2023-06-05T11:07:35;95752.13;;;30.73;34.68
64668;BME280;51077;42.716;23.344;2023-06-05T11:15:09;95744.06;;;31.63;33.15
64668;BME280;51077;42.716;23.344;2023-06-05T11:17:42;95734.31;;;31.84;32.49
64668;BME280;51077;42.716;23.344;2023-06-05T11:30:31;95728.16;;;32.98;30.47
64668;BME280;51077;42.716;23.344;2023-06-05T11:33:11;95723.59;;;33.09;30.39
64668;BME280;51077;42.716;23.344;2023-06-05T11:35:42;95720.66;;;33.27;29.86
64668;BME280;51077;42.716;23.344;2023-06-05T11:38:11;95714.66;;;33.39;29.64
64668;BME280;51077;42.716;23.344;2023-06-05T11:40:38;95700.16;;;33.50;29.53
64668;BME280;51077;42.716;23.344;2023-06-05T11:43:04;95706.75;;;33.77;29.43
64668;BME280;51077;42.716;23.344;2023-06-05T11:45:35;95703.50;;;33.87;28.98
64668;BME280;51077;42.716;23.344;2023-06-05T11:48:06;95690.47;;;33.80;29.41
64668;BME280;51077;42.716;23.344;2023-06-05T11:50:32;95684.97;;;33.86;29.20
64668;BME280;51077;42.716;23.344;2023-06-05T11:53:09;95687.09;;;33.85;29.34
64668;BME280;51077;42.716;23.344;2023-06-05T11:55:35;95689.63;;;33.97;29.16
64668;BME280;51077;42.716;23.344;2023-06-05T11:58:29;95691.63;;;34.14;28.80
64668;BME280;51077;42.716;23.344;2023-06-05T12:01:18;95674.56;;;34.16;28.85
64668;BME280;51077;42.716;23.344;2023-06-05T12:03:48;95683.13;;;34.16;28.82
64668;BME280;51077;42.716;23.344;2023-06-05T12:06:15;95685.78;;;34.10;28.91
64668;BME280;51077;42.716;23.344;2023-06-05T12:08:43;95684.50;;;33.93;29.01
64668;BME280;51077;42.716;23.344;2023-06-05T12:11:23;95687.78;;;34.06;28.94
64668;BME280;51077;42.716;23.344;2023-06-05T12:13:52;95678.69;;;34.11;29.13
64668;BME280;51077;42.716;23.344;2023-06-05T12:16:19;95672.72;;;33.81;28.99
64668;BME280;51077;42.716;23.344;2023-06-05T12:18:47;95674.13;;;33.80;29.21
64668;BME280;51077;42.716;23.344;2023-06-05T12:21:25;95675.25;;;33.93;29.06
64668;BME280;51077;42.716;23.344;2023-06-05T12:23:51;95683.50;;;33.85;28.76
64668;BME280;51077;42.716;23.344;2023-06-05T12:26:17;95668.31;;;33.98;28.53
64668;BME280;51077;42.716;23.344;2023-06-05T12:28:44;95664.97;;;33.62;28.92
64668;BME280;51077;42.716;23.344;2023-06-05T12:31:36;95672.13;;;33.63;28.68
64668;BME280;51077;42.716;23.344;2023-06-05T12:34:04;95671.41;;;33.42;28.90
64668;BME280;51077;42.716;23.344;2023-06-05T12:36:31;95660.41;;;33.33;29.20
64668;BME280;51077;42.716;23.344;2023-06-05T12:39:02;95656.25;;;33.16;29.17
64668;BME280;51077;42.716;23.344;2023-06-05T12:41:29;95660.00;;;33.00;29.44
64668;BME280;51077;42.716;23.344;2023-06-05T12:44:01;95645.69;;;32.98;29.70
64668;BME280;51077;42.716;23.344;2023-06-05T12:46:27;95650.88;;;33.04;29.43
64668;BME280;51077;42.716;23.344;2023-06-05T12:48:53;95627.09;;;32.95;29.08
64668;BME280;51077;42.716;23.344;2023-06-05T12:51:19;95633.94;;;32.88;29.30
64668;BME280;51077;42.716;23.344;2023-06-05T12:53:45;95634.44;;;32.63;29.59
64668;BME280;51077;42.716;23.344;2023-06-05T12:56:11;95625.25;;;32.44;30.09
64668;BME280;51077;42.716;23.344;2023-06-05T12:58:36;95628.84;;;32.27;30.27
64668;BME280;51077;42.716;23.344;2023-06-05T13:01:02;95618.88;;;32.08;30.53
64668;BME280;51077;42.716;23.344;2023-06-05T13:03:27;95636.94;;;32.17;30.51
64668;BME280;51077;42.716;23.344;2023-06-05T13:05:53;95627.84;;;32.20;30.21
64668;BME280;51077;42.716;23.344;2023-06-05T13:08:19;95619.44;;;31.87;31.05
64668;BME280;51077;42.716;23.344;2023-06-05T13:10:44;95623.81;;;31.72;30.84
64668;BME280;51077;42.716;23.344;2023-06-05T13:13:09;95629.69;;;31.42;31.60
64668;BME280;51077;42.716;23.344;2023-06-05T13:15:35;95623.50;;;30.96;32.49
64668;BME280;51077;42.716;23.344;2023-06-05T13:18:00;95619.88;;;30.62;32.98
64668;BME280;51077;42.716;23.344;2023-06-05T13:20:26;95624.63;;;30.26;32.70
64668;BME280;51077;42.716;23.344;2023-06-05T13:22:52;95620.22;;;30.23;32.95
64668;BME280;51077;42.716;23.344;2023-06-05T13:25:17;95616.03;;;30.24;33.23
64668;BME280;51077;42.716;23.344;2023-06-05T13:27:43;95601.38;;;30.14;33.05
64668;BME280;51077;42.716;23.344;2023-06-05T13:30:11;95600.81;;;30.01;33.36
64668;BME280;51077;42.716;23.344;2023-06-05T13:32:36;95602.59;;;29.79;34.00
64668;BME280;51077;42.716;23.344;2023-06-05T13:35:04;95611.69;;;29.77;34.06
64668;BME280;51077;42.716;23.344;2023-06-05T13:37:31;95611.69;;;29.62;34.02
64668;BME280;51077;42.716;23.344;2023-06-05T13:39:56;95608.88;;;29.48;34.38
64668;BME280;51077;42.716;23.344;2023-06-05T13:42:22;95611.72;;;29.34;34.66